sensor_id;sensor_type;location;lat;lon;timestamp;P1;durP1;ratioP1;P2;durP2;ratioP2
57824;SDS011;43912;44.188;21.094;2022-09-09T00:01:59;14.70;;;10.07;;
57824;SDS011;43912;44.188;21.094;2022-09-09T00:04:28;19.08;;;10.82;;
57824;SDS011;43912;44.188;21.094;2022-09-09T00:09:21;14.13;;;10.15;;
57824;SDS011;43912;44.188;21.094;2022-09-09T00:16:54;17.90;;;10.07;;
57824;SDS011;43912;44.188;21.094;2022-09-09T00:24:48;13.43;;;9.45;;
57824;SDS011;43912;44.188;21.094;2022-09-09T00:27:23;16.13;;;8.75;;
57824;SDS011;43912;44.188;21.094;2022-09-09T00:29:58;12.95;;;9.68;;
57824;SDS011;43912;44.188;21.094;2022-09-09T00:32:27;14.70;;;8.68;;
57824;SDS011;43912;44.188;21.094;2022-09-09T00:34:59;13.18;;;9.27;;
57824;SDS011;43912;44.188;21.094;2022-09-09T00:39:54;16.23;;;9.35;;
57824;SDS011;43912;44.188;21.094;2022-09-09T00:42:25;15.65;;;9.50;;
57824;SDS011;43912;44.188;21.094;2022-09-09T00:47:40;16.65;;;10.50;;
57824;SDS011;43912;44.188;21.094;2022-09-09T00:50:17;13.05;;;9.23;;
57824;SDS011;43912;44.188;21.094;2022-09-09T00:55:51;14.48;;;9.57;;
57824;SDS011;43912;44.188;21.094;2022-09-09T00:58:14;16.27;;;9.70;;
57824;SDS011;43912;44.188;21.094;2022-09-09T01:05:46;12.90;;;9.15;;
57824;SDS011;43912;44.188;21.094;2022-09-09T01:08:39;12.77;;;9.45;;
57824;SDS011;43912;44.188;21.094;2022-09-09T01:11:17;12.85;;;10.02;;
57824;SDS011;43912;44.188;21.094;2022-09-09T01:13:45;12.98;;;10.10;;
57824;SDS011;43912;44.188;21.094;2022-09-09T01:16:15;17.85;;;10.30;;
57824;SDS011;43912;44.188;21.094;2022-09-09T01:18:44;13.63;;;9.88;;
57824;SDS011;43912;44.188;21.094;2022-09-09T01:21:16;14.88;;;9.90;;
57824;SDS011;43912;44.188;21.094;2022-09-09T01:26:25;13.15;;;9.57;;
57824;SDS011;43912;44.188;21.094;2022-09-09T01:28:52;13.90;;;9.55;;
57824;SDS011;43912;44.188;21.094;2022-09-09T01:34:09;15.38;;;11.00;;
57824;SDS011;43912;44.188;21.094;2022-09-09T01:36:41;15.15;;;10.00;;
57824;SDS011;43912;44.188;21.094;2022-09-09T01:39:09;16.80;;;10.35;;
57824;SDS011;43912;44.188;21.094;2022-09-09T01:41:35;12.48;;;9.75;;
57824;SDS011;43912;44.188;21.094;2022-09-09T01:44:01;18.05;;;10.07;;
57824;SDS011;43912;44.188;21.094;2022-09-09T01:46:27;14.88;;;10.82;;
57824;SDS011;43912;44.188;21.094;2022-09-09T01:48:54;14.45;;;10.55;;
57824;SDS011;43912;44.188;21.094;2022-09-09T01:51:21;14.52;;;9.88;;
57824;SDS011;43912;44.188;21.094;2022-09-09T01:53:47;12.32;;;9.77;;
57824;SDS011;43912;44.188;21.094;2022-09-09T02:01:45;14.52;;;9.35;;
57824;SDS011;43912;44.188;21.094;2022-09-09T02:07:02;17.95;;;10.80;;
57824;SDS011;43912;44.188;21.094;2022-09-09T02:09:29;15.13;;;10.07;;
57824;SDS011;43912;44.188;21.094;2022-09-09T02:11:57;14.50;;;9.55;;
57824;SDS011;43912;44.188;21.094;2022-09-09T02:14:27;16.38;;;9.93;;
57824;SDS011;43912;44.188;21.094;2022-09-09T02:16:57;13.93;;;10.55;;
57824;SDS011;43912;44.188;21.094;2022-09-09T02:19:26;13.00;;;9.82;;
57824;SDS011;43912;44.188;21.094;2022-09-09T02:21:54;18.02;;;10.98;;
57824;SDS011;43912;44.188;21.094;2022-09-09T02:24:21;16.00;;;10.00;;
57824;SDS011;43912;44.188;21.094;2022-09-09T02:26:49;13.65;;;9.65;;
57824;SDS011;43912;44.188;21.094;2022-09-09T02:29:22;12.48;;;9.82;;
57824;SDS011;43912;44.188;21.094;2022-09-09T02:31:49;14.40;;;9.65;;
57824;SDS011;43912;44.188;21.094;2022-09-09T02:34:15;14.93;;;9.93;;
57824;SDS011;43912;44.188;21.094;2022-09-09T02:36:42;16.08;;;9.88;;
57824;SDS011;43912;44.188;21.094;2022-09-09T02:39:10;14.98;;;9.38;;
57824;SDS011;43912;44.188;21.094;2022-09-09T02:41:38;13.35;;;9.68;;
57824;SDS011;43912;44.188;21.094;2022-09-09T02:44:09;14.35;;;10.25;;
57824;SDS011;43912;44.188;21.094;2022-09-09T02:49:07;14.00;;;9.30;;
57824;SDS011;43912;44.188;21.094;2022-09-09T02:54:17;16.17;;;9.90;;
57824;SDS011;43912;44.188;21.094;2022-09-09T02:56:48;15.35;;;8.95;;
57824;SDS011;43912;44.188;21.094;2022-09-09T02:59:16;15.50;;;9.55;;
57824;SDS011;43912;44.188;21.094;2022-09-09T03:01:43;12.82;;;8.80;;
57824;SDS011;43912;44.188;21.094;2022-09-09T03:04:10;12.95;;;8.60;;
57824;SDS011;43912;44.188;21.094;2022-09-09T03:06:36;14.85;;;8.93;;
57824;SDS011;43912;44.188;21.094;2022-09-09T03:09:02;13.13;;;8.98;;
57824;SDS011;43912;44.188;21.094;2022-09-09T03:11:28;14.48;;;8.95;;
57824;SDS011;43912;44.188;21.094;2022-09-09T03:13:55;18.60;;;9.00;;
57824;SDS011;43912;44.188;21.094;2022-09-09T03:16:21;17.20;;;9.35;;
57824;SDS011;43912;44.188;21.094;2022-09-09T03:18:48;14.13;;;8.65;;
57824;SDS011;43912;44.188;21.094;2022-09-09T03:21:14;14.75;;;8.77;;
57824;SDS011;43912;44.188;21.094;2022-09-09T03:23:40;14.43;;;8.95;;
57824;SDS011;43912;44.188;21.094;2022-09-09T03:26:07;15.23;;;8.90;;
57824;SDS011;43912;44.188;21.094;2022-09-09T03:28:33;13.27;;;8.55;;
57824;SDS011;43912;44.188;21.094;2022-09-09T03:31:00;16.63;;;8.55;;
57824;SDS011;43912;44.188;21.094;2022-09-09T03:33:26;17.08;;;9.25;;
57824;SDS011;43912;44.188;21.094;2022-09-09T03:35:54;13.32;;;9.02;;
57824;SDS011;43912;44.188;21.094;2022-09-09T03:38:22;13.10;;;8.50;;
57824;SDS011;43912;44.188;21.094;2022-09-09T03:40:51;18.85;;;9.30;;
57824;SDS011;43912;44.188;21.094;2022-09-09T03:45:48;17.48;;;9.48;;
57824;SDS011;43912;44.188;21.094;2022-09-09T03:48:15;17.13;;;9.48;;
57824;SDS011;43912;44.188;21.094;2022-09-09T03:50:47;14.57;;;9.00;;
57824;SDS011;43912;44.188;21.094;2022-09-09T03:53:14;12.10;;;8.38;;
57824;SDS011;43912;44.188;21.094;2022-09-09T03:55:44;12.57;;;8.40;;
57824;SDS011;43912;44.188;21.094;2022-09-09T03:58:10;13.57;;;8.80;;
57824;SDS011;43912;44.188;21.094;2022-09-09T04:00:36;13.95;;;9.00;;
57824;SDS011;43912;44.188;21.094;2022-09-09T04:03:07;14.18;;;9.00;;
57824;SDS011;43912;44.188;21.094;2022-09-09T04:05:33;12.90;;;9.10;;
57824;SDS011;43912;44.188;21.094;2022-09-09T04:07:59;17.38;;;9.05;;
57824;SDS011;43912;44.188;21.094;2022-09-09T04:10:25;17.20;;;9.65;;
57824;SDS011;43912;44.188;21.094;2022-09-09T04:12:51;17.08;;;9.35;;
57824;SDS011;43912;44.188;21.094;2022-09-09T04:15:18;18.42;;;9.88;;
57824;SDS011;43912;44.188;21.094;2022-09-09T04:17:44;15.13;;;10.38;;
57824;SDS011;43912;44.188;21.094;2022-09-09T04:20:10;17.95;;;10.30;;
57824;SDS011;43912;44.188;21.094;2022-09-09T04:22:37;14.93;;;9.65;;
57824;SDS011;43912;44.188;21.094;2022-09-09T04:25:06;18.45;;;10.30;;
57824;SDS011;43912;44.188;21.094;2022-09-09T04:27:32;15.95;;;10.93;;
57824;SDS011;43912;44.188;21.094;2022-09-09T04:29:58;17.30;;;9.75;;
57824;SDS011;43912;44.188;21.094;2022-09-09T04:32:25;18.65;;;9.82;;
57824;SDS011;43912;44.188;21.094;2022-09-09T04:34:54;15.05;;;9.55;;
57824;SDS011;43912;44.188;21.094;2022-09-09T04:37:20;16.40;;;9.25;;
57824;SDS011;43912;44.188;21.094;2022-09-09T04:39:46;15.50;;;9.52;;
57824;SDS011;43912;44.188;21.094;2022-09-09T04:42:12;14.55;;;8.25;;
57824;SDS011;43912;44.188;21.094;2022-09-09T04:44:38;14.73;;;9.50;;
57824;SDS011;43912;44.188;21.094;2022-09-09T04:47:05;14.98;;;8.98;;
57824;SDS011;43912;44.188;21.094;2022-09-09T04:49:31;13.27;;;8.27;;
57824;SDS011;43912;44.188;21.094;2022-09-09T04:51:57;19.63;;;8.50;;
57824;SDS011;43912;44.188;21.094;2022-09-09T04:54:24;15.82;;;9.50;;
57824;SDS011;43912;44.188;21.094;2022-09-09T04:56:50;17.75;;;9.15;;
57824;SDS011;43912;44.188;21.094;2022-09-09T04:59:16;15.43;;;9.20;;
57824;SDS011;43912;44.188;21.094;2022-09-09T05:01:42;18.05;;;8.48;;
57824;SDS011;43912;44.188;21.094;2022-09-09T05:04:08;18.02;;;9.50;;
57824;SDS011;43912;44.188;21.094;2022-09-09T05:06:34;14.65;;;9.02;;
57824;SDS011;43912;44.188;21.094;2022-09-09T05:09:01;19.35;;;9.77;;
57824;SDS011;43912;44.188;21.094;2022-09-09T05:11:28;20.13;;;11.30;;
57824;SDS011;43912;44.188;21.094;2022-09-09T05:13:55;17.00;;;9.18;;
57824;SDS011;43912;44.188;21.094;2022-09-09T05:16:22;15.20;;;9.07;;
57824;SDS011;43912;44.188;21.094;2022-09-09T05:18:48;17.13;;;8.23;;
57824;SDS011;43912;44.188;21.094;2022-09-09T05:21:15;18.70;;;8.90;;
57824;SDS011;43912;44.188;21.094;2022-09-09T05:23:42;16.45;;;9.13;;
57824;SDS011;43912;44.188;21.094;2022-09-09T05:26:12;16.85;;;9.02;;
57824;SDS011;43912;44.188;21.094;2022-09-09T05:28:39;16.45;;;8.98;;
57824;SDS011;43912;44.188;21.094;2022-09-09T05:31:06;14.90;;;8.55;;
57824;SDS011;43912;44.188;21.094;2022-09-09T05:33:39;16.77;;;8.57;;
57824;SDS011;43912;44.188;21.094;2022-09-09T05:36:06;19.02;;;8.70;;
57824;SDS011;43912;44.188;21.094;2022-09-09T05:38:33;18.27;;;8.50;;
57824;SDS011;43912;44.188;21.094;2022-09-09T05:40:59;13.25;;;8.13;;
57824;SDS011;43912;44.188;21.094;2022-09-09T05:43:26;13.10;;;8.32;;
57824;SDS011;43912;44.188;21.094;2022-09-09T05:45:59;16.77;;;8.73;;
57824;SDS011;43912;44.188;21.094;2022-09-09T05:48:33;12.85;;;8.32;;
57824;SDS011;43912;44.188;21.094;2022-09-09T05:50:59;11.60;;;7.73;;
57824;SDS011;43912;44.188;21.094;2022-09-09T05:53:26;17.25;;;8.70;;
57824;SDS011;43912;44.188;21.094;2022-09-09T05:55:59;14.38;;;8.88;;
57824;SDS011;43912;44.188;21.094;2022-09-09T05:58:25;17.48;;;8.25;;
57824;SDS011;43912;44.188;21.094;2022-09-09T06:00:51;18.70;;;8.70;;
57824;SDS011;43912;44.188;21.094;2022-09-09T06:03:17;13.40;;;8.25;;
57824;SDS011;43912;44.188;21.094;2022-09-09T06:05:44;16.60;;;8.32;;
57824;SDS011;43912;44.188;21.094;2022-09-09T06:08:10;15.38;;;8.68;;
57824;SDS011;43912;44.188;21.094;2022-09-09T06:10:36;15.25;;;8.25;;
57824;SDS011;43912;44.188;21.094;2022-09-09T06:13:02;16.27;;;10.18;;
57824;SDS011;43912;44.188;21.094;2022-09-09T06:15:28;20.20;;;9.10;;
57824;SDS011;43912;44.188;21.094;2022-09-09T06:17:55;17.55;;;9.73;;
57824;SDS011;43912;44.188;21.094;2022-09-09T06:20:21;17.85;;;10.02;;
57824;SDS011;43912;44.188;21.094;2022-09-09T06:22:47;14.68;;;9.93;;
57824;SDS011;43912;44.188;21.094;2022-09-09T06:25:13;16.40;;;9.65;;
57824;SDS011;43912;44.188;21.094;2022-09-09T06:27:40;17.08;;;10.45;;
57824;SDS011;43912;44.188;21.094;2022-09-09T06:30:07;16.80;;;9.93;;
57824;SDS011;43912;44.188;21.094;2022-09-09T06:32:34;13.38;;;8.85;;
57824;SDS011;43912;44.188;21.094;2022-09-09T06:35:02;18.65;;;9.32;;
57824;SDS011;43912;44.188;21.094;2022-09-09T06:37:29;16.75;;;10.10;;
57824;SDS011;43912;44.188;21.094;2022-09-09T06:39:55;15.55;;;10.43;;
57824;SDS011;43912;44.188;21.094;2022-09-09T06:42:21;19.58;;;10.77;;
57824;SDS011;43912;44.188;21.094;2022-09-09T06:44:48;19.80;;;10.65;;
57824;SDS011;43912;44.188;21.094;2022-09-09T06:47:14;18.23;;;10.38;;
57824;SDS011;43912;44.188;21.094;2022-09-09T06:49:40;17.20;;;10.65;;
57824;SDS011;43912;44.188;21.094;2022-09-09T06:52:08;18.23;;;10.50;;
57824;SDS011;43912;44.188;21.094;2022-09-09T06:54:34;18.05;;;12.02;;
57824;SDS011;43912;44.188;21.094;2022-09-09T06:57:02;18.27;;;10.77;;
57824;SDS011;43912;44.188;21.094;2022-09-09T06:59:28;14.43;;;11.30;;
57824;SDS011;43912;44.188;21.094;2022-09-09T07:01:55;19.33;;;11.20;;
57824;SDS011;43912;44.188;21.094;2022-09-09T07:04:21;19.30;;;10.25;;
57824;SDS011;43912;44.188;21.094;2022-09-09T07:06:48;16.98;;;9.70;;
57824;SDS011;43912;44.188;21.094;2022-09-09T07:09:14;15.65;;;10.88;;
57824;SDS011;43912;44.188;21.094;2022-09-09T07:11:48;15.90;;;10.93;;
57824;SDS011;43912;44.188;21.094;2022-09-09T07:14:15;19.75;;;10.15;;
57824;SDS011;43912;44.188;21.094;2022-09-09T07:16:42;18.17;;;9.70;;
57824;SDS011;43912;44.188;21.094;2022-09-09T07:19:08;16.88;;;9.95;;
57824;SDS011;43912;44.188;21.094;2022-09-09T07:21:34;16.67;;;9.90;;
57824;SDS011;43912;44.188;21.094;2022-09-09T07:24:01;16.45;;;10.05;;
57824;SDS011;43912;44.188;21.094;2022-09-09T07:26:28;15.88;;;9.65;;
57824;SDS011;43912;44.188;21.094;2022-09-09T07:28:54;15.23;;;10.43;;
57824;SDS011;43912;44.188;21.094;2022-09-09T07:31:28;19.83;;;12.07;;
57824;SDS011;43912;44.188;21.094;2022-09-09T07:33:55;17.33;;;11.63;;
57824;SDS011;43912;44.188;21.094;2022-09-09T07:36:25;18.52;;;10.18;;
57824;SDS011;43912;44.188;21.094;2022-09-09T07:38:55;15.73;;;9.85;;
57824;SDS011;43912;44.188;21.094;2022-09-09T07:41:22;13.70;;;9.20;;
57824;SDS011;43912;44.188;21.094;2022-09-09T07:43:49;11.23;;;8.40;;
57824;SDS011;43912;44.188;21.094;2022-09-09T07:46:16;15.70;;;9.07;;
57824;SDS011;43912;44.188;21.094;2022-09-09T07:48:53;15.38;;;8.95;;
57824;SDS011;43912;44.188;21.094;2022-09-09T07:51:24;12.73;;;8.95;;
57824;SDS011;43912;44.188;21.094;2022-09-09T07:53:52;15.93;;;9.23;;
57824;SDS011;43912;44.188;21.094;2022-09-09T07:56:19;17.95;;;9.10;;
57824;SDS011;43912;44.188;21.094;2022-09-09T07:58:49;15.80;;;8.50;;
57824;SDS011;43912;44.188;21.094;2022-09-09T08:01:18;17.92;;;8.98;;
57824;SDS011;43912;44.188;21.094;2022-09-09T08:03:45;14.25;;;9.20;;
57824;SDS011;43912;44.188;21.094;2022-09-09T08:06:11;13.65;;;9.05;;
57824;SDS011;43912;44.188;21.094;2022-09-09T08:08:39;11.82;;;8.02;;
57824;SDS011;43912;44.188;21.094;2022-09-09T08:11:13;17.67;;;8.80;;
57824;SDS011;43912;44.188;21.094;2022-09-09T08:13:41;13.73;;;8.23;;
57824;SDS011;43912;44.188;21.094;2022-09-09T08:16:11;18.80;;;9.25;;
57824;SDS011;43912;44.188;21.094;2022-09-09T08:18:38;15.38;;;9.15;;
57824;SDS011;43912;44.188;21.094;2022-09-09T08:21:05;16.63;;;8.65;;
57824;SDS011;43912;44.188;21.094;2022-09-09T08:23:31;16.38;;;9.35;;
57824;SDS011;43912;44.188;21.094;2022-09-09T08:26:04;18.90;;;8.20;;
57824;SDS011;43912;44.188;21.094;2022-09-09T08:28:30;12.80;;;8.45;;
57824;SDS011;43912;44.188;21.094;2022-09-09T08:31:04;14.10;;;9.00;;
57824;SDS011;43912;44.188;21.094;2022-09-09T08:33:30;15.02;;;8.52;;
57824;SDS011;43912;44.188;21.094;2022-09-09T08:35:57;14.68;;;8.48;;
57824;SDS011;43912;44.188;21.094;2022-09-09T08:38:24;14.38;;;8.95;;
57824;SDS011;43912;44.188;21.094;2022-09-09T08:40:50;17.25;;;10.00;;
57824;SDS011;43912;44.188;21.094;2022-09-09T08:43:20;15.27;;;9.55;;
57824;SDS011;43912;44.188;21.094;2022-09-09T08:45:54;15.80;;;10.75;;
57824;SDS011;43912;44.188;21.094;2022-09-09T08:50:54;17.60;;;11.48;;
57824;SDS011;43912;44.188;21.094;2022-09-09T08:53:27;16.38;;;12.30;;
57824;SDS011;43912;44.188;21.094;2022-09-09T08:55:59;16.98;;;11.00;;
57824;SDS011;43912;44.188;21.094;2022-09-09T08:58:31;15.57;;;12.85;;
57824;SDS011;43912;44.188;21.094;2022-09-09T09:11:37;12.93;;;7.70;;
57824;SDS011;43912;44.188;21.094;2022-09-09T09:14:25;12.88;;;8.23;;
57824;SDS011;43912;44.188;21.094;2022-09-09T09:16:55;12.38;;;7.00;;
57824;SDS011;43912;44.188;21.094;2022-09-09T09:19:22;18.60;;;14.05;;
57824;SDS011;43912;44.188;21.094;2022-09-09T09:26:59;15.35;;;7.50;;
57824;SDS011;43912;44.188;21.094;2022-09-09T09:29:26;14.15;;;7.53;;
57824;SDS011;43912;44.188;21.094;2022-09-09T09:31:53;15.38;;;7.70;;
57824;SDS011;43912;44.188;21.094;2022-09-09T09:34:20;14.02;;;7.13;;
57824;SDS011;43912;44.188;21.094;2022-09-09T09:36:55;12.52;;;7.05;;
57824;SDS011;43912;44.188;21.094;2022-09-09T09:39:23;10.13;;;6.45;;
57824;SDS011;43912;44.188;21.094;2022-09-09T09:41:50;13.65;;;7.68;;
57824;SDS011;43912;44.188;21.094;2022-09-09T09:46:51;8.90;;;5.82;;
57824;SDS011;43912;44.188;21.094;2022-09-09T09:49:18;16.77;;;7.80;;
57824;SDS011;43912;44.188;21.094;2022-09-09T09:51:44;12.70;;;8.40;;
57824;SDS011;43912;44.188;21.094;2022-09-09T09:54:31;11.23;;;7.43;;
57824;SDS011;43912;44.188;21.094;2022-09-09T09:57:11;11.85;;;7.10;;
57824;SDS011;43912;44.188;21.094;2022-09-09T09:59:37;12.30;;;6.05;;
57824;SDS011;43912;44.188;21.094;2022-09-09T10:04:40;11.05;;;6.50;;
57824;SDS011;43912;44.188;21.094;2022-09-09T10:07:13;11.77;;;6.10;;
57824;SDS011;43912;44.188;21.094;2022-09-09T10:09:42;11.65;;;5.90;;
57824;SDS011;43912;44.188;21.094;2022-09-09T10:22:39;12.52;;;6.68;;
57824;SDS011;43912;44.188;21.094;2022-09-09T10:25:17;10.55;;;5.75;;
57824;SDS011;43912;44.188;21.094;2022-09-09T10:28:00;9.60;;;5.28;;
57824;SDS011;43912;44.188;21.094;2022-09-09T10:30:34;8.50;;;4.85;;
57824;SDS011;43912;44.188;21.094;2022-09-09T10:33:09;8.77;;;4.90;;
57824;SDS011;43912;44.188;21.094;2022-09-09T10:56:23;11.30;;;5.53;;
57824;SDS011;43912;44.188;21.094;2022-09-09T10:58:54;11.13;;;5.45;;
57824;SDS011;43912;44.188;21.094;2022-09-09T11:01:22;12.98;;;5.40;;
57824;SDS011;43912;44.188;21.094;2022-09-09T11:03:54;9.48;;;4.78;;
57824;SDS011;43912;44.188;21.094;2022-09-09T11:06:21;8.70;;;4.25;;
57824;SDS011;43912;44.188;21.094;2022-09-09T11:08:50;8.77;;;4.65;;
57824;SDS011;43912;44.188;21.094;2022-09-09T11:16:34;10.88;;;5.05;;
57824;SDS011;43912;44.188;21.094;2022-09-09T11:19:03;8.35;;;5.03;;
57824;SDS011;43912;44.188;21.094;2022-09-09T11:21:34;8.35;;;4.78;;
57824;SDS011;43912;44.188;21.094;2022-09-09T11:24:04;11.77;;;5.00;;
57824;SDS011;43912;44.188;21.094;2022-09-09T11:26:38;8.52;;;4.80;;
57824;SDS011;43912;44.188;21.094;2022-09-09T11:42:26;10.35;;;5.50;;
57824;SDS011;43912;44.188;21.094;2022-09-09T11:44:53;13.70;;;5.68;;
57824;SDS011;43912;44.188;21.094;2022-09-09T11:47:30;9.73;;;5.32;;
57824;SDS011;43912;44.188;21.094;2022-09-09T11:52:41;9.90;;;5.15;;
57824;SDS011;43912;44.188;21.094;2022-09-09T11:55:12;9.45;;;5.00;;
57824;SDS011;43912;44.188;21.094;2022-09-09T11:57:56;9.18;;;4.85;;
57824;SDS011;43912;44.188;21.094;2022-09-09T12:02:58;11.07;;;5.45;;
57824;SDS011;43912;44.188;21.094;2022-09-09T12:05:24;12.40;;;5.93;;
57824;SDS011;43912;44.188;21.094;2022-09-09T12:08:01;15.05;;;5.63;;
57824;SDS011;43912;44.188;21.094;2022-09-09T12:10:35;9.27;;;4.80;;
57824;SDS011;43912;44.188;21.094;2022-09-09T12:13:15;10.13;;;4.90;;
57824;SDS011;43912;44.188;21.094;2022-09-09T12:15:51;11.50;;;4.80;;
57824;SDS011;43912;44.188;21.094;2022-09-09T12:18:38;10.77;;;4.93;;
57824;SDS011;43912;44.188;21.094;2022-09-09T12:21:26;10.65;;;4.95;;
57824;SDS011;43912;44.188;21.094;2022-09-09T12:34:09;15.07;;;4.68;;
57824;SDS011;43912;44.188;21.094;2022-09-09T12:36:36;12.40;;;4.30;;
57824;SDS011;43912;44.188;21.094;2022-09-09T12:39:36;11.30;;;5.00;;
57824;SDS011;43912;44.188;21.094;2022-09-09T12:41:55;11.73;;;3.90;;
57824;SDS011;43912;44.188;21.094;2022-09-09T12:44:24;10.75;;;4.30;;
57824;SDS011;43912;44.188;21.094;2022-09-09T12:46:53;10.82;;;4.38;;
57824;SDS011;43912;44.188;21.094;2022-09-09T12:49:34;12.98;;;4.32;;
57824;SDS011;43912;44.188;21.094;2022-09-09T12:52:06;9.32;;;4.10;;
57824;SDS011;43912;44.188;21.094;2022-09-09T12:54:36;10.60;;;4.47;;
57824;SDS011;43912;44.188;21.094;2022-09-09T12:57:03;9.02;;;3.85;;
57824;SDS011;43912;44.188;21.094;2022-09-09T12:59:37;9.27;;;3.67;;
57824;SDS011;43912;44.188;21.094;2022-09-09T13:02:25;10.02;;;3.80;;
57824;SDS011;43912;44.188;21.094;2022-09-09T13:04:50;10.88;;;4.57;;
57824;SDS011;43912;44.188;21.094;2022-09-09T13:07:17;11.52;;;4.78;;
57824;SDS011;43912;44.188;21.094;2022-09-09T13:09:44;12.63;;;5.72;;
57824;SDS011;43912;44.188;21.094;2022-09-09T13:12:13;11.02;;;4.70;;
57824;SDS011;43912;44.188;21.094;2022-09-09T13:14:40;9.88;;;5.13;;
57824;SDS011;43912;44.188;21.094;2022-09-09T13:17:19;11.75;;;5.20;;
57824;SDS011;43912;44.188;21.094;2022-09-09T13:19:46;9.30;;;5.15;;
57824;SDS011;43912;44.188;21.094;2022-09-09T13:22:57;14.75;;;4.93;;
57824;SDS011;43912;44.188;21.094;2022-09-09T13:27:34;10.73;;;5.15;;
57824;SDS011;43912;44.188;21.094;2022-09-09T13:35:46;10.65;;;5.28;;
57824;SDS011;43912;44.188;21.094;2022-09-09T13:38:16;11.23;;;5.65;;
57824;SDS011;43912;44.188;21.094;2022-09-09T13:40:51;11.25;;;5.03;;
57824;SDS011;43912;44.188;21.094;2022-09-09T13:43:20;13.43;;;5.63;;
57824;SDS011;43912;44.188;21.094;2022-09-09T13:45:54;9.65;;;5.10;;
57824;SDS011;43912;44.188;21.094;2022-09-09T13:48:21;10.52;;;6.00;;
57824;SDS011;43912;44.188;21.094;2022-09-09T13:51:01;10.65;;;5.35;;
57824;SDS011;43912;44.188;21.094;2022-09-09T13:53:30;11.88;;;5.43;;
57824;SDS011;43912;44.188;21.094;2022-09-09T13:55:56;12.10;;;6.20;;
57824;SDS011;43912;44.188;21.094;2022-09-09T13:58:23;14.07;;;5.63;;
57824;SDS011;43912;44.188;21.094;2022-09-09T14:00:50;13.93;;;7.28;;
57824;SDS011;43912;44.188;21.094;2022-09-09T14:03:16;15.90;;;7.57;;
57824;SDS011;43912;44.188;21.094;2022-09-09T14:05:43;10.70;;;5.95;;
57824;SDS011;43912;44.188;21.094;2022-09-09T14:08:11;11.20;;;6.55;;
57824;SDS011;43912;44.188;21.094;2022-09-09T14:10:40;14.43;;;6.35;;
57824;SDS011;43912;44.188;21.094;2022-09-09T14:13:06;14.27;;;5.03;;
57824;SDS011;43912;44.188;21.094;2022-09-09T14:15:33;11.65;;;6.82;;
57824;SDS011;43912;44.188;21.094;2022-09-09T14:17:59;9.63;;;4.78;;
57824;SDS011;43912;44.188;21.094;2022-09-09T14:20:25;9.93;;;4.72;;
57824;SDS011;43912;44.188;21.094;2022-09-09T14:22:51;13.52;;;7.05;;
57824;SDS011;43912;44.188;21.094;2022-09-09T14:25:18;10.00;;;4.18;;
57824;SDS011;43912;44.188;21.094;2022-09-09T14:27:44;11.85;;;4.75;;
57824;SDS011;43912;44.188;21.094;2022-09-09T14:30:11;10.68;;;5.35;;
57824;SDS011;43912;44.188;21.094;2022-09-09T14:32:37;10.10;;;4.60;;
57824;SDS011;43912;44.188;21.094;2022-09-09T14:35:03;11.30;;;4.78;;
57824;SDS011;43912;44.188;21.094;2022-09-09T14:37:29;12.27;;;5.28;;
57824;SDS011;43912;44.188;21.094;2022-09-09T14:39:56;11.82;;;5.35;;
57824;SDS011;43912;44.188;21.094;2022-09-09T14:42:22;12.07;;;5.57;;
57824;SDS011;43912;44.188;21.094;2022-09-09T14:44:48;9.95;;;5.05;;
57824;SDS011;43912;44.188;21.094;2022-09-09T14:47:14;10.23;;;4.82;;
57824;SDS011;43912;44.188;21.094;2022-09-09T14:49:41;13.40;;;4.68;;
57824;SDS011;43912;44.188;21.094;2022-09-09T14:52:07;11.13;;;5.10;;
57824;SDS011;43912;44.188;21.094;2022-09-09T14:54:34;11.30;;;4.50;;
57824;SDS011;43912;44.188;21.094;2022-09-09T14:57:00;10.27;;;4.57;;
57824;SDS011;43912;44.188;21.094;2022-09-09T14:59:26;12.40;;;4.45;;
57824;SDS011;43912;44.188;21.094;2022-09-09T15:01:52;12.80;;;4.88;;
57824;SDS011;43912;44.188;21.094;2022-09-09T15:04:18;10.40;;;4.63;;
57824;SDS011;43912;44.188;21.094;2022-09-09T15:06:45;13.63;;;5.20;;
57824;SDS011;43912;44.188;21.094;2022-09-09T15:09:13;9.60;;;4.80;;
57824;SDS011;43912;44.188;21.094;2022-09-09T15:11:39;12.38;;;4.72;;
57824;SDS011;43912;44.188;21.094;2022-09-09T15:14:07;14.77;;;5.53;;
57824;SDS011;43912;44.188;21.094;2022-09-09T15:16:33;15.32;;;5.32;;
57824;SDS011;43912;44.188;21.094;2022-09-09T15:19:00;11.95;;;5.35;;
57824;SDS011;43912;44.188;21.094;2022-09-09T15:21:27;11.13;;;5.45;;
57824;SDS011;43912;44.188;21.094;2022-09-09T15:23:54;11.82;;;4.97;;
57824;SDS011;43912;44.188;21.094;2022-09-09T15:26:21;13.73;;;5.45;;
57824;SDS011;43912;44.188;21.094;2022-09-09T15:28:47;10.65;;;5.35;;
57824;SDS011;43912;44.188;21.094;2022-09-09T15:31:15;11.57;;;5.50;;
57824;SDS011;43912;44.188;21.094;2022-09-09T15:33:48;11.80;;;5.20;;
57824;SDS011;43912;44.188;21.094;2022-09-09T15:36:15;11.10;;;5.88;;
57824;SDS011;43912;44.188;21.094;2022-09-09T15:38:42;11.38;;;5.32;;
57824;SDS011;43912;44.188;21.094;2022-09-09T15:41:09;12.43;;;5.60;;
57824;SDS011;43912;44.188;21.094;2022-09-09T15:43:35;10.43;;;5.05;;
57824;SDS011;43912;44.188;21.094;2022-09-09T15:48:43;9.73;;;5.38;;
57824;SDS011;43912;44.188;21.094;2022-09-09T15:51:10;11.75;;;5.45;;
57824;SDS011;43912;44.188;21.094;2022-09-09T15:53:40;13.27;;;5.90;;
57824;SDS011;43912;44.188;21.094;2022-09-09T15:56:06;13.35;;;5.30;;
57824;SDS011;43912;44.188;21.094;2022-09-09T15:58:33;11.73;;;5.25;;
57824;SDS011;43912;44.188;21.094;2022-09-09T16:01:07;11.95;;;5.65;;
57824;SDS011;43912;44.188;21.094;2022-09-09T16:03:34;10.63;;;5.03;;
57824;SDS011;43912;44.188;21.094;2022-09-09T16:06:00;10.75;;;5.38;;
57824;SDS011;43912;44.188;21.094;2022-09-09T16:08:33;12.15;;;5.55;;
57824;SDS011;43912;44.188;21.094;2022-09-09T16:13:55;13.10;;;5.53;;
57824;SDS011;43912;44.188;21.094;2022-09-09T16:16:23;11.02;;;5.53;;
57824;SDS011;43912;44.188;21.094;2022-09-09T16:18:50;14.52;;;6.70;;
57824;SDS011;43912;44.188;21.094;2022-09-09T16:21:18;21.88;;;8.73;;
57824;SDS011;43912;44.188;21.094;2022-09-09T16:23:45;19.75;;;9.30;;
57824;SDS011;43912;44.188;21.094;2022-09-09T16:26:11;18.63;;;10.27;;
57824;SDS011;43912;44.188;21.094;2022-09-09T16:28:38;19.27;;;9.95;;
57824;SDS011;43912;44.188;21.094;2022-09-09T16:31:05;13.32;;;6.93;;
57824;SDS011;43912;44.188;21.094;2022-09-09T16:33:31;13.35;;;6.18;;
57824;SDS011;43912;44.188;21.094;2022-09-09T16:35:58;14.38;;;6.50;;
57824;SDS011;43912;44.188;21.094;2022-09-09T16:38:24;14.32;;;7.28;;
57824;SDS011;43912;44.188;21.094;2022-09-09T16:40:50;15.65;;;7.03;;
57824;SDS011;43912;44.188;21.094;2022-09-09T16:43:17;14.85;;;7.10;;
57824;SDS011;43912;44.188;21.094;2022-09-09T16:45:43;11.85;;;6.85;;
57824;SDS011;43912;44.188;21.094;2022-09-09T16:48:10;15.43;;;7.40;;
57824;SDS011;43912;44.188;21.094;2022-09-09T16:50:36;12.20;;;6.82;;
57824;SDS011;43912;44.188;21.094;2022-09-09T16:53:03;15.00;;;8.38;;
57824;SDS011;43912;44.188;21.094;2022-09-09T16:55:31;15.23;;;7.03;;
57824;SDS011;43912;44.188;21.094;2022-09-09T16:57:57;14.23;;;6.63;;
57824;SDS011;43912;44.188;21.094;2022-09-09T17:00:23;13.52;;;6.65;;